Time;durP1;ratioP1;P1;durP2;ratioP2;P2;SDS_P1;SDS_P2;PMS_P1;PMS_P2;Temp;Humidity;BMP_temperature;BMP_pressure;BME280_temperature;BME280_humidity;BME280_pressure;Samples;Min_cycle;Max_cycle;Signal;HPM_P1;HPM_P2
2021/09/29 00:00:52;;;;;;;8.10;4.30;;;;;;;9.84;75.92;102111.77;1772313;81;21185;-65
2021/09/29 00:03:25;;;;;;;8.30;4.08;;;;;;;9.84;76.01;102115.69;1772481;81;21284;-64
2021/09/29 00:05:58;;;;;;;6.17;4.08;;;;;;;9.85;76.15;102110.84;1772927;81;21281;-66
2021/09/29 00:08:31;;;;;;;6.22;4.00;;;;;;;9.86;76.12;102111.20;1771718;79;21272;-64
2021/09/29 00:11:04;;;;;;;8.13;4.70;;;;;;;9.86;76.18;102110.39;1772713;81;21181;-65
2021/09/29 00:13:37;;;;;;;;;;;;;;;9.85;76.12;102116.53;1773204;81;21928;-64
2021/09/29 00:16:10;;;;;;;7.05;4.12;;;;;;;9.81;76.18;102119.80;1772227;81;20192;-65
2021/09/29 00:18:43;;;;;;;6.58;4.03;;;;;;;9.76;76.26;102114.44;1771308;81;21281;-64
2021/09/29 00:21:16;;;;;;;8.00;4.13;;;;;;;9.73;76.46;102113.30;1771605;81;21296;-65
2021/09/29 00:23:49;;;;;;;;;;;;;;;9.69;76.59;102108.72;1773376;81;21184;-64
2021/09/29 00:26:22;;;;;;;6.70;4.37;;;;;;;9.69;76.75;102111.80;1770890;81;20239;-68
2021/09/29 00:28:55;;;;;;;6.17;4.15;;;;;;;9.65;76.83;102113.72;1745505;81;21218;-63
2021/09/29 00:34:10;;;;;;;6.50;4.40;;;;;;;9.64;77.04;102109.89;1740758;82;21273;-63
2021/09/29 00:36:51;;;;;;;8.93;4.67;;;;;;;9.64;77.12;102111.20;1740881;82;21159;-63
2021/09/29 00:39:19;;;;;;;6.75;4.22;;;;;;;9.62;77.15;102115.22;1740433;82;21178;-63
2021/09/29 00:41:52;;;;;;;;;;;;;;;9.61;77.26;102114.83;1743679;82;21329;-66
2021/09/29 00:44:26;;;;;;;10.00;4.90;;;;;;;9.63;77.37;102112.97;1745541;81;20247;-64
2021/09/29 00:46:59;;;;;;;10.28;4.60;;;;;;;9.63;77.39;102112.97;1746833;81;21267;-63
2021/09/29 00:49:33;;;;;;;6.10;3.95;;;;;;;9.62;77.40;102115.22;1770872;81;21281;-63
2021/09/29 00:52:07;;;;;;;9.00;4.70;;;;;;;9.65;77.38;102125.98;1770723;80;21264;-63
2021/09/29 00:54:41;;;;;;;5.97;4.03;;;;;;;9.67;77.38;102121.50;1772406;81;21327;-63
2021/09/29 00:57:14;;;;;;;9.70;4.08;;;;;;;9.66;77.48;102123.72;1772623;81;21795;-63
2021/09/29 00:59:47;;;;;;;7.08;5.10;;;;;;;9.67;77.46;102123.66;1771589;81;21300;-64
2021/09/29 01:02:21;;;;;;;4.55;4.08;;;;;;;9.66;77.36;102127.19;1772466;81;21157;-64
2021/09/29 01:04:54;;;;;;;7.53;4.10;;;;;;;9.63;77.42;102130.42;1772259;81;21288;-65
2021/09/29 01:07:52;;;;;;;8.78;4.62;;;;;;;9.62;77.50;102127.45;1772686;81;21130;-64
2021/09/29 01:10:53;;;;;;;9.00;4.20;;;;;;;9.62;77.54;102130.06;1793922;79;21145;-64
2021/09/29 01:13:42;;;;;;;6.33;4.42;;;;;;;9.59;77.72;102131.06;1804688;79;21125;-64
2021/09/29 01:16:15;;;;;;;7.00;4.00;;;;;;;9.61;77.78;102130.97;1786588;79;21137;-63
2021/09/29 01:18:51;;;;;;;;;;;;;;;9.63;77.73;102139.11;1782365;79;21696;-63
2021/09/29 01:21:25;;;;;;;7.00;4.50;;;;;;;9.63;77.74;102142.19;1803647;79;20161;-65
2021/09/29 01:24:23;;;;;;;6.62;4.12;;;;;;;9.59;77.80;102140.22;1804953;79;21282;-63
2021/09/29 01:26:57;;;;;;;8.48;5.12;;;;;;;9.58;77.79;102142.44;1803339;79;21169;-65
2021/09/29 01:29:30;;;;;;;8.30;4.72;;;;;;;9.57;77.75;102146.46;1804230;79;21249;-64
2021/09/29 01:32:03;;;;;;;9.27;4.33;;;;;;;9.54;77.87;102151.39;1803469;79;21158;-64
2021/09/29 01:34:36;;;;;;;8.03;4.50;;;;;;;9.55;77.91;102151.78;1804854;79;21252;-64
2021/09/29 01:37:11;;;;;;;8.65;4.47;;;;;;;9.55;77.97;102157.47;1803548;79;21272;-62
2021/09/29 01:39:44;;;;;;;11.43;5.33;;;;;;;9.54;78.04;102157.93;1804297;79;21668;-63
2021/09/29 01:42:17;;;;;;;8.57;4.60;;;;;;;9.54;78.08;102161.00;1803365;79;21122;-65
2021/09/29 01:44:50;;;;;;;;;;;;;;;9.55;78.16;102157.47;1806059;79;21419;-64
2021/09/29 01:47:23;;;;;;;8.30;4.75;;;;;;;9.54;78.19;102162.31;1803094;79;20221;-65
2021/09/29 01:50:00;;;;;;;7.25;5.33;;;;;;;9.53;78.22;102158.02;1804299;79;21272;-65
2021/09/29 01:52:35;;;;;;;8.48;5.03;;;;;;;9.55;78.24;102164.01;1803565;79;21234;-64
2021/09/29 01:55:08;;;;;;;8.13;5.12;;;;;;;9.54;78.19;102157.93;1804634;79;21278;-62
2021/09/29 01:57:42;;;;;;;7.15;4.33;;;;;;;9.53;78.17;102158.84;1804603;79;21244;-63
2021/09/29 02:00:16;;;;;;;8.93;5.25;;;;;;;9.51;78.25;102163.31;1804415;79;21244;-63
2021/09/29 02:02:55;;;;;;;9.50;4.80;;;;;;;9.53;78.26;102166.69;1808226;79;21121;-63
2021/09/29 02:05:30;;;;;;;9.80;5.42;;;;;;;9.55;78.29;102171.39;1804620;79;21241;-62
2021/09/29 02:08:06;;;;;;;8.50;4.97;;;;;;;9.56;78.30;102166.53;1804692;79;21271;-62
2021/09/29 02:10:40;;;;;;;9.45;6.20;;;;;;;9.59;78.33;102171.60;1807068;79;21310;-61
2021/09/29 02:13:13;;;;;;;6.75;4.40;;;;;;;9.60;78.26;102170.66;1813725;79;21165;-63
2021/09/29 02:15:47;;;;;;;7.90;5.15;;;;;;;9.63;78.19;102167.88;1813242;79;21745;-63
2021/09/29 02:18:20;;;;;;;9.13;4.87;;;;;;;9.66;78.12;102166.41;1813847;79;21236;-62
2021/09/29 02:20:53;;;;;;;13.43;5.30;;;;;;;9.68;78.02;102164.55;1812701;79;21743;-62
2021/09/29 02:23:26;;;;;;;9.70;5.65;;;;;;;9.71;77.96;102171.39;1813514;79;21245;-62
2021/09/29 02:26:00;;;;;;;11.22;5.65;;;;;;;9.71;77.75;102174.00;1813654;79;21251;-64
2021/09/29 02:28:33;;;;;;;9.10;6.23;;;;;;;9.70;77.89;102167.08;1813791;79;21280;-65
2021/09/29 02:31:06;;;;;;;;;;;;;;;9.74;77.83;102168.61;1814020;79;21727;-64
2021/09/29 02:33:39;;;;;;;11.43;5.75;;;;;;;9.77;77.77;102171.04;1813308;79;20161;-63
2021/09/29 02:36:12;;;;;;;11.48;6.03;;;;;;;9.77;77.62;102171.89;1813875;79;21173;-63
2021/09/29 02:38:46;;;;;;;10.72;5.40;;;;;;;9.78;77.57;102180.13;1813818;79;21240;-62
2021/09/29 02:41:19;;;;;;;9.70;5.70;;;;;;;9.82;77.41;102179.48;1812625;79;21338;-62
2021/09/29 02:43:53;;;;;;;12.30;6.42;;;;;;;9.82;77.41;102179.48;1811839;79;21616;-65
2021/09/29 02:46:27;;;;;;;9.38;6.35;;;;;;;9.84;77.54;102188.94;1813558;79;21264;-62
2021/09/29 02:49:01;;;;;;;11.95;6.87;;;;;;;9.84;77.51;102178.95;1811591;79;21128;-63
2021/09/29 02:51:35;;;;;;;13.13;7.50;;;;;;;9.84;77.44;102186.31;1779738;79;21280;-62
2021/09/29 02:54:08;;;;;;;11.30;6.60;;;;;;;9.82;77.36;102189.48;1782347;79;21228;-61
2021/09/29 02:56:42;;;;;;;13.58;7.17;;;;;;;9.80;77.33;102188.73;1813165;79;21279;-63
2021/09/29 02:59:16;;;;;;;10.05;6.42;;;;;;;9.78;77.33;102191.90;1813737;79;21177;-63
2021/09/29 03:01:49;;;;;;;11.03;5.90;;;;;;;9.75;77.60;102196.44;1812495;79;21148;-63
2021/09/29 03:04:22;;;;;;;15.48;6.78;;;;;;;9.75;77.60;102196.44;1813732;79;21769;-64
2021/09/29 03:06:55;;;;;;;17.07;6.40;;;;;;;9.73;77.51;102195.23;1813528;79;21159;-62
2021/09/29 03:09:28;;;;;;;11.08;5.35;;;;;;;9.73;77.54;102200.91;1813435;79;21128;-62
2021/09/29 03:12:02;;;;;;;14.55;6.92;;;;;;;9.69;77.54;102204.18;1809169;79;21172;-64
2021/09/29 03:14:35;;;;;;;11.80;6.33;;;;;;;9.68;77.65;102206.86;1803586;79;21276;-64
2021/09/29 03:17:09;;;;;;;12.70;6.50;;;;;;;9.66;77.71;102206.95;1803468;79;21184;-63
2021/09/29 03:19:42;;;;;;;11.63;6.43;;;;;;;9.67;77.78;102211.27;1805023;79;21133;-63
2021/09/29 03:22:16;;;;;;;13.88;6.65;;;;;;;9.69;77.83;102211.17;1803952;79;22070;-64
2021/09/29 03:24:49;;;;;;;10.82;6.22;;;;;;;9.71;77.81;102212.78;1805039;79;21264;-65
2021/09/29 03:27:22;;;;;;;12.87;6.93;;;;;;;9.71;77.77;102212.78;1804789;79;21169;-65
2021/09/29 03:29:55;;;;;;;;;;;;;;;9.69;77.79;102215.09;1807807;79;21283;-65
2021/09/29 03:32:28;;;;;;;11.75;6.85;;;;;;;9.67;77.72;102218.27;1803643;79;20614;-65
2021/09/29 03:35:01;;;;;;;13.30;6.92;;;;;;;9.59;77.77;102220.43;1804936;79;21676;-64
2021/09/29 03:37:35;;;;;;;13.72;7.25;;;;;;;9.54;77.82;102215.91;1804897;79;21260;-64
2021/09/29 03:40:12;;;;;;;11.83;7.13;;;;;;;9.48;77.85;102219.72;1805437;79;21237;-63
2021/09/29 03:42:46;;;;;;;12.88;7.12;;;;;;;9.46;77.96;102220.23;1804030;79;21169;-63
2021/09/29 03:45:20;;;;;;;13.55;7.17;;;;;;;9.45;78.05;102224.64;1804890;79;21283;-63
2021/09/29 03:47:53;;;;;;;15.40;6.65;;;;;;;9.48;78.12;102224.95;1804861;79;21265;-63
2021/09/29 03:50:26;;;;;;;12.23;7.00;;;;;;;9.52;78.15;102226.92;1778009;79;21189;-64
2021/09/29 03:52:59;;;;;;;14.73;7.12;;;;;;;9.58;78.11;102222.69;1765834;81;21827;-63
2021/09/29 03:55:33;;;;;;;18.17;7.35;;;;;;;9.63;78.12;102224.56;1770076;80;21299;-63
2021/09/29 03:58:06;;;;;;;14.93;7.35;;;;;;;9.68;77.98;102226.47;1772593;81;21299;-63
2021/09/29 04:00:39;;;;;;;13.22;7.30;;;;;;;9.72;77.89;102227.53;1771647;79;21153;-63
2021/09/29 04:03:12;;;;;;;13.85;5.42;;;;;;;9.76;77.86;102236.92;1772092;81;21279;-63
2021/09/29 04:05:47;;;;;;;14.93;6.42;;;;;;;9.80;77.82;102231.04;1772250;79;21268;-64
2021/09/29 04:08:20;;;;;;;15.72;6.30;;;;;;;9.84;77.83;102232.09;1772060;81;21165;-64
2021/09/29 04:10:55;;;;;;;13.60;7.45;;;;;;;9.88;77.70;102234.09;1772323;79;21149;-62
2021/09/29 04:13:31;;;;;;;12.43;7.10;;;;;;;9.92;77.60;102233.84;1771676;81;21791;-64
2021/09/29 04:16:04;;;;;;;13.28;7.60;;;;;;;9.92;77.46;102237.77;1772355;81;21200;-63
2021/09/29 04:18:38;;;;;;;13.50;7.62;;;;;;;9.94;77.24;102235.05;1770746;81;21358;-64
2021/09/29 04:21:14;;;;;;;12.05;7.08;;;;;;;9.92;77.17;102231.23;1770948;81;21323;-65
2021/09/29 04:23:47;;;;;;;16.05;7.10;;;;;;;9.95;77.15;102230.22;1771792;81;21316;-64
2021/09/29 04:26:20;;;;;;;17.12;7.87;;;;;;;9.96;76.89;102235.35;1773148;81;21232;-67
2021/09/29 04:28:53;;;;;;;16.77;7.28;;;;;;;9.98;76.88;102236.59;1771408;81;21267;-65
2021/09/29 04:31:27;;;;;;;16.05;6.87;;;;;;;10.00;76.78;102239.97;1772981;81;21137;-65
2021/09/29 04:34:00;;;;;;;16.75;7.15;;;;;;;10.05;76.68;102237.45;1770819;81;21346;-65
2021/09/29 04:36:33;;;;;;;19.02;6.47;;;;;;;10.10;76.35;102241.97;1773141;81;21284;-65
2021/09/29 04:39:07;;;;;;;17.02;7.95;;;;;;;10.12;75.99;102239.33;1772721;81;21271;-64
2021/09/29 04:41:40;;;;;;;14.45;7.45;;;;;;;10.12;75.73;102243.25;1773194;81;21152;-65
2021/09/29 04:44:13;;;;;;;13.20;6.92;;;;;;;10.13;75.66;102244.47;1771938;81;21292;-65
2021/09/29 04:46:47;;;;;;;12.33;6.83;;;;;;;10.18;75.39;102251.20;1771490;81;21133;-65
2021/09/29 04:49:20;;;;;;;23.47;7.35;;;;;;;10.21;75.28;102260.20;1786414;79;21318;-68
2021/09/29 04:51:53;;;;;;;14.75;7.22;;;;;;;10.24;75.08;102259.59;1784531;79;21821;-65
2021/09/29 04:54:27;;;;;;;12.68;7.08;;;;;;;10.26;74.83;102260.80;1782030;79;21194;-69
2021/09/29 04:57:00;;;;;;;15.90;7.45;;;;;;;10.26;74.62;102259.49;1781726;79;21393;-69
2021/09/29 04:59:34;;;;;;;15.90;6.58;;;;;;;10.26;74.47;102263.42;1785115;79;21279;-65
2021/09/29 05:02:08;;;;;;;15.58;7.15;;;;;;;10.29;74.44;102268.48;1784725;79;22331;-65
2021/09/29 05:04:41;;;;;;;18.00;7.22;;;;;;;10.30;74.30;102272.78;1744404;79;21416;-63
2021/09/29 05:07:18;;;;;;;14.13;6.05;;;;;;;10.32;74.09;102265.71;1775008;79;21301;-62
2021/09/29 05:09:51;;;;;;;13.10;6.65;;;;;;;10.36;73.96;102273.30;1786370;79;21283;-62
2021/09/29 05:12:33;;;;;;;14.70;6.97;;;;;;;10.38;73.73;102274.52;1762746;79;21286;-64
2021/09/29 05:15:11;;;;;;;9.35;7.03;;;;;;;10.42;73.64;102269.48;1782487;79;21342;-61
2021/09/29 05:17:45;;;;;;;15.03;6.65;;;;;;;10.46;73.38;102272.33;1781946;79;21222;-63
2021/09/29 05:20:19;;;;;;;12.33;6.85;;;;;;;10.54;73.12;102273.56;1769826;78;21367;-67
2021/09/29 05:22:52;;;;;;;11.63;6.35;;;;;;;10.69;73.12;102277.09;1775324;79;21305;-67
2021/09/29 05:25:28;;;;;;;9.63;6.10;;;;;;;10.86;72.70;102280.05;1769010;79;21330;-67
2021/09/29 05:28:03;;;;;;;15.08;7.03;;;;;;;10.91;71.92;102279.31;1767748;79;21770;-63
2021/09/29 05:30:38;;;;;;;13.05;7.28;;;;;;;10.93;71.41;102280.92;1783946;79;21782;-65
2021/09/29 05:33:11;;;;;;;11.93;5.87;;;;;;;10.95;71.34;102281.67;1761671;79;21152;-60
2021/09/29 05:35:44;;;;;;;13.22;6.12;;;;;;;11.04;71.27;102275.88;1775525;79;21307;-67
2021/09/29 05:38:17;;;;;;;10.37;6.40;;;;;;;11.05;70.52;102283.28;1773710;79;21175;-72
2021/09/29 05:40:51;;;;;;;11.53;6.33;;;;;;;11.02;70.33;102288.23;1765996;79;21264;-64
2021/09/29 05:43:24;;;;;;;10.67;5.63;;;;;;;11.03;70.25;102287.32;1769161;79;21846;-65
2021/09/29 05:45:58;;;;;;;10.82;6.60;;;;;;;11.07;70.10;102293.21;1764034;79;21273;-65
2021/09/29 05:48:31;;;;;;;11.70;7.45;;;;;;;11.08;70.02;102288.36;1783752;79;21294;-64
2021/09/29 05:51:05;;;;;;;9.88;6.65;;;;;;;11.15;69.96;102287.06;1775265;79;21733;-70
2021/09/29 05:53:39;;;;;;;;;;;;;;;11.21;69.76;102286.22;1776755;79;21200;-67
2021/09/29 05:56:13;;;;;;;10.82;6.25;;;;;;;11.30;69.55;102291.37;1769285;79;20301;-60
2021/09/29 05:58:46;;;;;;;18.50;7.08;;;;;;;11.36;69.19;102293.65;1766588;79;21319;-62
2021/09/29 06:01:21;;;;;;;13.25;6.70;;;;;;;11.39;69.12;102286.92;1768865;79;21307;-66
2021/09/29 06:03:55;;;;;;;15.32;5.78;;;;;;;11.44;68.72;102296.63;1765566;79;21232;-69
2021/09/29 06:06:31;;;;;;;9.95;6.25;;;;;;;11.43;68.47;102298.44;1775784;79;21199;-66
2021/09/29 06:09:05;;;;;;;17.62;6.25;;;;;;;11.40;68.10;102305.17;1770285;79;21160;-62
2021/09/29 06:11:39;;;;;;;11.60;6.37;;;;;;;11.39;67.83;102298.72;1761598;79;21299;-66
2021/09/29 06:14:14;;;;;;;11.22;6.37;;;;;;;11.36;67.81;102295.81;1778327;78;21200;-67
2021/09/29 06:16:48;;;;;;;24.32;7.65;;;;;;;11.38;67.95;102293.09;1769236;79;21180;-64
2021/09/29 06:19:22;;;;;;;7.87;5.97;;;;;;;11.41;67.87;102296.84;1767550;79;21272;-62
2021/09/29 06:21:54;;;;;;;;;;;;;;;11.44;67.72;102296.17;1772184;79;21299;-64
2021/09/29 06:24:28;;;;;;;9.33;5.60;;;;;;;11.46;67.35;102296.92;1764417;79;20306;-70
2021/09/29 06:27:04;;;;;;;9.28;5.30;;;;;;;11.42;67.09;102299.36;1769052;79;21323;-67
2021/09/29 06:29:37;;;;;;;12.50;6.05;;;;;;;11.45;67.02;102304.44;1765500;80;21862;-68
2021/09/29 06:32:11;;;;;;;;;;;;;;;11.42;66.74;102309.00;1770568;80;21234;-64
2021/09/29 06:34:43;;;;;;;12.28;5.62;;;;;;;11.41;66.54;102316.05;1766833;79;20445;-68
2021/09/29 06:37:17;;;;;;;7.58;5.40;;;;;;;11.37;66.96;102315.84;1732216;81;21583;-65
2021/09/29 06:39:52;;;;;;;15.80;5.33;;;;;;;11.42;66.74;102316.41;1720369;81;21803;-63
2021/09/29 06:42:25;;;;;;;9.23;5.45;;;;;;;11.45;66.80;102322.80;1715781;83;22501;-66
2021/09/29 06:44:59;;;;;;;7.25;5.12;;;;;;;11.49;66.77;102324.28;1704139;82;21389;-64
2021/09/29 06:47:34;;;;;;;8.00;4.85;;;;;;;11.56;66.87;102321.31;1712952;82;21206;-63
2021/09/29 06:50:09;;;;;;;11.18;4.85;;;;;;;11.61;66.73;102323.19;1715748;81;21853;-64
2021/09/29 06:52:42;;;;;;;8.63;5.40;;;;;;;11.63;66.05;102322.13;1714532;81;21269;-63
2021/09/29 06:55:23;;;;;;;8.03;4.92;;;;;;;11.67;65.85;102321.50;1712202;82;21321;-63
2021/09/29 06:57:56;;;;;;;11.90;5.90;;;;;;;11.75;65.53;102321.92;1711017;81;22289;-68
2021/09/29 07:00:31;;;;;;;7.62;4.85;;;;;;;11.80;65.26;102327.23;1715320;81;21311;-64
2021/09/29 07:03:06;;;;;;;6.90;4.85;;;;;;;11.88;64.63;102322.38;1717513;81;21346;-60
2021/09/29 07:05:40;;;;;;;17.25;5.78;;;;;;;11.91;64.11;102322.20;1716612;81;21341;-64
2021/09/29 07:08:13;;;;;;;;;;;;;;;12.00;64.37;102322.94;1721911;81;21783;-66
2021/09/29 07:10:47;;;;;;;7.55;5.10;;;;;;;12.12;63.59;102325.27;1707535;81;20243;-64
2021/09/29 07:13:20;;;;;;;10.13;4.65;;;;;;;12.19;62.62;102326.56;1710341;81;21304;-64
2021/09/29 07:15:53;;;;;;;12.23;4.62;;;;;;;12.26;61.80;102329.17;1710613;81;21325;-65
2021/09/29 07:18:31;;;;;;;8.20;4.37;;;;;;;12.36;61.37;102328.13;1716036;81;21284;-67
2021/09/29 07:21:03;;;;;;;9.38;4.25;;;;;;;12.43;60.82;102325.02;1746456;80;21326;-69
2021/09/29 07:23:37;;;;;;;8.00;4.50;;;;;;;12.53;60.85;102334.00;1787176;79;21291;-69
2021/09/29 07:26:10;;;;;;;10.08;4.70;;;;;;;12.59;60.36;102327.48;1786570;79;21260;-67
2021/09/29 07:28:44;;;;;;;9.20;4.42;;;;;;;12.59;60.09;102323.08;1777203;79;21311;-66
2021/09/29 07:31:18;;;;;;;7.30;4.50;;;;;;;12.66;59.85;102328.78;1785941;79;21157;-68
2021/09/29 07:33:52;;;;;;;6.97;4.47;;;;;;;12.77;59.51;102323.22;1783424;79;21310;-68
2021/09/29 07:36:25;;;;;;;14.18;4.15;;;;;;;12.91;58.99;102323.62;1787558;79;21295;-68
2021/09/29 07:38:58;;;;;;;9.75;3.98;;;;;;;13.03;58.72;102325.91;1786443;79;21172;-67
2021/09/29 07:41:31;;;;;;;6.40;4.07;;;;;;;13.13;58.03;102319.13;1786896;79;21302;-70
2021/09/29 07:44:06;;;;;;;5.28;3.65;;;;;;;13.27;57.49;102329.10;1786882;79;21998;-65
2021/09/29 07:46:40;;;;;;;3.95;3.25;;;;;;;13.44;57.27;102320.92;1785181;79;21264;-70
2021/09/29 07:49:13;;;;;;;5.95;3.67;;;;;;;13.63;56.47;102321.81;1779145;79;21203;-70
2021/09/29 07:51:51;;;;;;;14.90;4.78;;;;;;;13.80;55.96;102314.91;1789615;79;21318;-66
2021/09/29 07:54:26;;;;;;;6.22;3.60;;;;;;;13.88;55.25;102320.46;1781725;79;21291;-61
2021/09/29 07:56:59;;;;;;;3.95;3.12;;;;;;;13.92;55.03;102315.34;1786078;79;21311;-64
2021/09/29 07:59:32;;;;;;;7.17;3.67;;;;;;;14.01;54.91;102321.30;1782536;79;21822;-65
2021/09/29 08:02:06;;;;;;;3.87;3.30;;;;;;;14.18;54.49;102318.32;1790758;79;21282;-63
2021/09/29 08:04:42;;;;;;;6.08;3.17;;;;;;;14.30;53.76;102321.02;1781676;79;21287;-63
2021/09/29 08:07:16;;;;;;;5.20;2.83;;;;;;;14.21;52.86;102323.81;1777631;79;21810;-63
2021/09/29 08:09:50;;;;;;;5.47;3.30;;;;;;;14.03;52.63;102325.98;1780515;79;21276;-65
2021/09/29 08:12:23;;;;;;;18.30;3.30;;;;;;;13.80;53.09;102325.91;1782379;79;21303;-61
2021/09/29 08:14:56;;;;;;;5.40;2.80;;;;;;;13.62;53.47;102333.27;1785767;79;21382;-62
2021/09/29 08:17:29;;;;;;;6.87;2.72;;;;;;;13.51;52.93;102325.28;1782671;79;22339;-65
2021/09/29 08:20:02;;;;;;;8.38;2.80;;;;;;;13.44;52.96;102321.39;1786545;79;21278;-65
2021/09/29 08:22:36;;;;;;;8.23;2.65;;;;;;;13.51;52.66;102325.28;1784662;79;21870;-64
2021/09/29 08:25:18;;;;;;;4.25;2.50;;;;;;;13.71;52.20;102312.89;1781847;79;21926;-68
2021/09/29 08:39:05;;;;;;;2.92;2.30;;;;;;;15.17;46.28;102321.56;1785308;79;21295;-69
2021/09/29 08:41:52;;;;;;;5.80;2.70;;;;;;;14.70;46.54;102318.52;1785606;79;21283;-65
2021/09/29 08:47:09;;;;;;;7.50;2.35;;;;;;;14.29;47.30;102320.17;1782362;79;21328;-65
2021/09/29 08:49:49;;;;;;;4.97;2.30;;;;;;;14.27;46.87;102310.22;1785897;79;21238;-70
2021/09/29 08:52:29;;;;;;;3.77;2.20;;;;;;;14.66;46.48;102307.84;1787725;79;21268;-62
2021/09/29 08:58:03;;;;;;;5.90;2.55;;;;;;;15.24;43.70;102310.44;1782266;79;21863;-65
2021/09/29 09:17:31;;;;;;;5.17;2.27;;;;;;;16.82;40.15;102305.31;1786723;79;21153;-67
2021/09/29 09:20:23;;;;;;;9.70;1.65;;;;;;;17.36;39.81;102299.35;1783812;79;21287;-65
2021/09/29 09:22:57;;;;;;;12.65;2.00;;;;;;;17.56;38.78;102292.39;1779058;79;21286;-68
2021/09/29 09:25:37;;;;;;;2.92;1.82;;;;;;;17.15;39.17;102298.52;1784415;79;22154;-65
2021/09/29 09:28:14;;;;;;;6.65;1.75;;;;;;;16.71;39.80;102302.72;1775895;79;21264;-67
2021/09/29 09:30:50;;;;;;;5.33;1.72;;;;;;;16.28;40.80;102308.45;1752965;80;21910;-65
2021/09/29 09:33:28;;;;;;;3.72;1.90;;;;;;;15.92;41.39;102303.83;1791717;79;22304;-65
2021/09/29 09:36:03;;;;;;;5.33;2.33;;;;;;;15.61;41.66;102305.02;1762721;79;21285;-66
2021/09/29 09:38:38;;;;;;;3.37;2.17;;;;;;;15.35;42.18;102305.20;1791413;79;21202;-63
2021/09/29 09:41:11;;;;;;;2.45;1.75;;;;;;;15.34;42.17;102310.10;1738567;79;21319;-66
2021/09/29 09:43:58;;;;;;;7.25;2.22;;;;;;;15.52;41.38;102309.69;1745432;79;21399;-67
2021/09/29 09:46:32;;;;;;;2.12;1.90;;;;;;;15.55;40.82;102307.64;1778378;79;21229;-65
2021/09/29 09:49:09;;;;;;;2.65;1.70;;;;;;;15.47;40.69;102304.77;1783008;79;21224;-66
2021/09/29 09:51:51;;;;;;;3.80;2.02;;;;;;;15.35;40.42;102301.24;1777501;79;21304;-65
2021/09/29 09:54:37;;;;;;;3.67;1.98;;;;;;;15.37;40.31;102302.44;1783516;79;21215;-69
2021/09/29 09:57:22;;;;;;;5.08;1.92;;;;;;;15.50;39.82;102299.23;1782456;79;21331;-66
2021/09/29 09:59:55;;;;;;;2.72;1.90;;;;;;;15.75;39.30;102295.06;1791078;79;21244;-64
2021/09/29 10:02:38;;;;;;;2.40;1.55;;;;;;;15.87;38.48;102303.34;1791505;79;21320;-65
2021/09/29 10:05:15;;;;;;;4.28;1.90;;;;;;;15.81;38.07;102297.71;1719909;82;21169;-63
2021/09/29 10:07:49;;;;;;;6.67;1.77;;;;;;;15.72;38.69;102293.97;1782250;79;21212;-69
2021/09/29 10:10:44;;;;;;;;;;;;;;;15.66;38.96;102293.62;1783672;79;21296;-67
2021/09/29 10:13:36;;;;;;;7.50;1.80;;;;;;;15.64;39.11;102292.43;1781332;79;20267;-68
2021/09/29 10:28:18;;;;;;;3.77;1.80;;;;;;;15.09;40.59;102288.34;1782726;79;21367;-66
2021/09/29 10:34:10;;;;;;;8.00;2.15;;;;;;;15.40;38.92;102285.86;1788590;79;21435;-70
2021/09/29 10:42:55;;;;;;;4.25;2.10;;;;;;;15.21;40.37;102288.23;1783814;79;21335;-68
2021/09/29 10:45:32;;;;;;;5.80;1.77;;;;;;;15.12;41.05;102292.05;1779407;79;21193;-69
2021/09/29 10:48:24;;;;;;;9.00;1.80;;;;;;;15.00;39.91;102294.32;1780679;79;21699;-67
2021/09/29 11:07:49;;;;;;;10.78;2.40;;;;;;;14.36;40.59;102285.87;1787174;79;21196;-64
2021/09/29 11:27:37;;;;;;;2.25;1.47;;;;;;;14.18;41.67;102272.22;1744894;79;21275;-67
2021/09/29 11:30:10;;;;;;;3.02;1.50;;;;;;;14.20;41.77;102274.73;1777349;79;21125;-65
2021/09/29 11:32:47;;;;;;;3.47;1.85;;;;;;;14.17;42.08;102274.95;1786933;79;21196;-64
2021/09/29 11:35:28;;;;;;;2.20;1.52;;;;;;;14.17;42.24;102267.04;1780641;79;21315;-63
2021/09/29 11:49:54;;;;;;;2.17;1.35;;;;;;;13.86;41.34;102255.70;1782368;79;21693;-68
2021/09/29 12:12:28;;;;;;;3.52;1.75;;;;;;;13.98;40.40;102257.45;1744575;81;21473;-65
2021/09/29 12:15:10;;;;;;;3.45;1.80;;;;;;;13.93;40.55;102255.16;1781556;79;21258;-69
2021/09/29 12:17:50;;;;;;;4.45;1.40;;;;;;;13.90;40.31;102254.55;1786338;79;21197;-66
2021/09/29 12:20:28;;;;;;;2.85;1.30;;;;;;;13.82;40.06;102248.97;1781270;79;21243;-69
2021/09/29 12:23:08;;;;;;;4.33;1.70;;;;;;;13.77;40.34;102249.30;1785525;79;21330;-69
2021/09/29 12:28:20;;;;;;;1.87;1.40;;;;;;;13.74;40.26;102247.34;1783480;79;21942;-70
2021/09/29 12:33:57;;;;;;;5.28;1.50;;;;;;;13.81;40.17;102250.76;1794634;79;22146;-65
2021/09/29 12:36:33;;;;;;;2.98;1.22;;;;;;;13.77;40.26;102246.67;1792999;79;21342;-66
2021/09/29 12:39:25;;;;;;;2.08;1.40;;;;;;;13.69;40.34;102245.51;1793598;79;21153;-70
2021/09/29 12:42:00;;;;;;;3.33;1.40;;;;;;;13.55;40.51;102242.53;1795778;79;21286;-70
2021/09/29 12:44:34;;;;;;;4.37;1.40;;;;;;;13.46;40.89;102241.40;1794898;79;21161;-68
2021/09/29 12:47:12;;;;;;;4.22;1.30;;;;;;;13.44;41.50;102234.09;1761638;80;21159;-68
2021/09/29 12:49:43;;;;;;;5.92;1.52;;;;;;;13.50;41.76;102237.59;1732582;81;21279;-65
2021/09/29 12:52:38;;;;;;;4.42;1.60;;;;;;;13.54;40.80;102239.55;1733916;81;21215;-64
2021/09/29 12:55:06;;;;;;;3.80;1.77;;;;;;;13.49;40.91;102233.77;1727475;81;21278;-68
2021/09/29 12:57:41;;;;;;;10.13;2.05;;;;;;;13.40;41.06;102240.49;1730275;81;21354;-63
2021/09/29 13:00:16;;;;;;;5.47;1.65;;;;;;;13.31;40.90;102237.66;1733084;81;21311;-66
2021/09/29 13:02:49;;;;;;;10.18;1.50;;;;;;;13.17;40.76;102238.61;1736569;81;21306;-60
2021/09/29 13:05:22;;;;;;;4.85;2.45;;;;;;;13.03;41.18;102240.45;1734576;81;21840;-64
2021/09/29 13:07:56;;;;;;;4.20;2.25;;;;;;;12.92;41.61;102245.11;1734324;81;21335;-68
2021/09/29 13:10:31;;;;;;;6.85;2.55;;;;;;;12.89;42.02;102239.23;1733475;81;21249;-68
2021/09/29 13:13:09;;;;;;;2.92;1.60;;;;;;;12.88;41.92;102233.59;1740780;81;21308;-69
2021/09/29 13:15:43;;;;;;;2.72;1.80;;;;;;;12.90;41.98;102236.98;1737579;81;22360;-69
2021/09/29 13:21:07;;;;;;;4.25;2.25;;;;;;;12.87;40.47;102247.23;1737959;82;21324;-68
2021/09/29 13:23:34;;;;;;;10.55;1.80;;;;;;;12.81;39.77;102250.25;1740709;81;21335;-67
2021/09/29 13:37:11;;;;;;;2.72;1.50;;;;;;;12.83;41.29;102247.05;1730429;82;21330;-65
2021/09/29 13:39:45;;;;;;;3.33;1.90;;;;;;;12.93;41.88;102249.90;1730496;82;21372;-63
2021/09/29 13:42:19;;;;;;;8.98;2.00;;;;;;;13.02;41.84;102251.44;1726191;82;22620;-68
2021/09/29 13:44:54;;;;;;;4.40;2.47;;;;;;;13.04;41.82;102249.55;1726577;82;21169;-64
2021/09/29 13:47:28;;;;;;;9.73;2.30;;;;;;;12.99;42.01;102253.45;1731208;82;21870;-66
2021/09/29 13:50:01;;;;;;;;;;;;;;;12.88;41.63;102260.73;1734841;82;21294;-67
2021/09/29 13:52:34;;;;;;;5.15;1.82;;;;;;;12.73;41.87;102260.42;1701076;83;20269;-63
2021/09/29 13:55:15;;;;;;;7.37;2.33;;;;;;;12.57;42.58;102261.91;1677259;83;21285;-61
2021/09/29 13:57:53;;;;;;;3.72;2.00;;;;;;;12.43;42.84;102263.28;1704056;83;21338;-63
2021/09/29 14:31:12;;;;;;;4.90;2.37;;;;;;;11.40;46.31;102284.66;1705104;81;21313;-64
2021/09/29 14:33:44;;;;;;;5.03;2.90;;;;;;;11.33;46.70;102290.73;1755627;81;21278;-64
2021/09/29 14:36:16;;;;;;;10.35;2.22;;;;;;;11.28;47.16;102303.73;1752429;81;21308;-64
2021/09/29 14:38:49;;;;;;;5.65;2.20;;;;;;;11.21;47.17;102301.95;1754050;81;21231;-62
2021/09/29 14:41:22;;;;;;;32.95;17.85;;;;;;;11.14;47.33;102305.02;1751833;81;21263;-63
2021/09/29 14:43:55;;;;;;;116.90;50.47;;;;;;;11.07;46.95;102310.25;1759734;81;21279;-63
2021/09/29 14:46:28;;;;;;;68.45;28.57;;;;;;;10.99;47.17;102313.31;1740734;82;21238;-63
2021/09/29 14:49:03;;;;;;;55.90;24.85;;;;;;;10.91;47.49;102305.06;1734919;82;21238;-64
2021/09/29 14:51:36;;;;;;;25.52;10.48;;;;;;;10.84;47.91;102309.79;1803053;79;21279;-62
2021/09/29 14:54:09;;;;;;;9.10;4.10;;;;;;;10.76;48.17;102308.55;1803483;79;21129;-61
2021/09/29 14:56:45;;;;;;;11.38;3.60;;;;;;;10.69;48.47;102311.14;1803249;79;21311;-61